Time;durP1;ratioP1;P1;durP2;ratioP2;P2;SDS_P1;SDS_P2;PMS_P1;PMS_P2;Temp;Humidity;BMP_temperature;BMP_pressure;BME280_temperature;BME280_humidity;BME280_pressure;Samples;Min_cycle;Max_cycle;Signal;HPM_P1;HPM_P2
2021/12/19 00:00:41;;;;;;;35.42;18.42;;;6.40;99.90;;;;;;7263902;32;20167;-82
2021/12/19 00:08:55;;;;;;;37.72;18.15;;;6.50;99.90;;;;;;7261364;32;20148;-82
2021/12/19 00:12:58;;;;;;;36.78;17.65;;;6.50;99.90;;;;;;7265739;32;20165;-81
2021/12/19 00:17:00;;;;;;;33.92;18.25;;;6.50;99.90;;;;;;7275736;32;20132;-81
2021/12/19 00:21:04;;;;;;;33.00;17.98;;;6.50;99.90;;;;;;7259235;32;20109;-81
2021/12/19 00:25:14;;;;;;;39.20;18.67;;;6.60;99.90;;;;;;7256843;32;20113;-81
2021/12/19 00:29:16;;;;;;;34.03;19.25;;;6.60;99.90;;;;;;7243564;32;20238;-81
2021/12/19 00:33:18;;;;;;;33.20;18.50;;;6.60;99.90;;;;;;7289518;32;20073;-82
2021/12/19 00:37:22;;;;;;;35.97;19.35;;;6.50;99.90;;;;;;7282017;32;20135;-81
2021/12/19 00:41:24;;;;;;;35.38;20.85;;;6.50;99.90;;;;;;7294033;32;20061;-81
2021/12/19 00:45:29;;;;;;;34.72;19.15;;;6.60;99.90;;;;;;7268321;32;20197;-82
2021/12/19 00:49:32;;;;;;;34.63;18.67;;;6.60;99.90;;;;;;7280609;32;20121;-81
2021/12/19 00:53:34;;;;;;;31.62;18.95;;;6.50;99.90;;;;;;7262809;32;20120;-82
2021/12/19 00:57:36;;;;;;;38.80;20.50;;;6.50;99.90;;;;;;7294984;32;20140;-81
2021/12/19 01:01:39;;;;;;;34.15;19.37;;;6.50;99.90;;;;;;7282625;32;20156;-81
2021/12/19 01:05:42;;;;;;;31.60;17.42;;;6.60;99.90;;;;;;7296540;32;20066;-81
2021/12/19 01:09:44;;;;;;;26.45;15.95;;;6.60;99.90;;;;;;7294425;32;20113;-81
2021/12/19 01:13:46;;;;;;;26.60;16.98;;;6.70;99.90;;;;;;7285319;32;20359;-81
2021/12/19 01:17:49;;;;;;;27.13;16.80;;;6.70;99.90;;;;;;7264124;32;20104;-81
2021/12/19 01:21:51;;;;;;;30.98;17.42;;;6.60;99.90;;;;;;7275433;32;20188;-80
2021/12/19 01:25:53;;;;;;;28.75;16.85;;;6.70;99.90;;;;;;7245232;32;20415;-82
2021/12/19 01:29:55;;;;;;;28.50;17.52;;;6.60;99.90;;;;;;7247550;32;20619;-81
2021/12/19 01:33:57;;;;;;;29.87;17.92;;;6.70;99.90;;;;;;7274478;32;20105;-81
2021/12/19 01:38:00;;;;;;;30.67;18.15;;;6.60;99.90;;;;;;7273137;32;20108;-81
2021/12/19 01:42:03;;;;;;;30.88;17.55;;;6.60;99.90;;;;;;7241738;32;20505;-82
2021/12/19 01:46:05;;;;;;;27.10;15.68;;;6.60;99.90;;;;;;7236739;32;20200;-81
2021/12/19 01:50:08;;;;;;;27.42;16.23;;;6.60;99.90;;;;;;7234368;32;20274;-81
2021/12/19 01:54:11;;;;;;;31.67;15.57;;;6.50;99.90;;;;;;7249020;32;20150;-80
2021/12/19 01:58:14;;;;;;;28.20;16.50;;;6.50;99.90;;;;;;7248618;32;20613;-81
2021/12/19 02:02:16;;;;;;;27.80;16.60;;;6.60;99.90;;;;;;7237769;32;20203;-81
2021/12/19 02:06:19;;;;;;;28.27;16.15;;;6.60;99.90;;;;;;7264486;32;20131;-82
2021/12/19 02:10:31;;;;;;;29.60;16.40;;;6.50;99.90;;;;;;7251563;32;20174;-82
2021/12/19 02:14:33;;;;;;;27.62;15.35;;;6.50;99.90;;;;;;7268046;32;20187;-82
2021/12/19 02:18:37;;;;;;;27.13;16.05;;;6.50;99.90;;;;;;7249521;32;20113;-82
2021/12/19 02:22:39;;;;;;;25.37;16.58;;;6.50;99.90;;;;;;7255093;32;20113;-82
2021/12/19 02:26:43;;;;;;;28.52;16.98;;;6.60;99.90;;;;;;7237122;32;20808;-82
2021/12/19 02:30:47;;;;;;;27.35;15.23;;;6.60;99.90;;;;;;7249532;32;20112;-81
2021/12/19 02:34:53;;;;;;;21.52;13.75;;;6.60;99.90;;;;;;7250770;32;20112;-81
2021/12/19 02:51:58;;;;;;;26.27;15.73;;;6.60;99.90;;;;;;7244179;32;20179;-82
2021/12/19 02:56:02;;;;;;;28.30;17.15;;;6.60;99.90;;;;;;7264679;32;20141;-81
2021/12/19 03:00:09;;;;;;;33.45;18.80;;;6.60;99.90;;;;;;7255917;32;20113;-81
2021/12/19 03:04:12;;;;;;;33.22;19.23;;;6.50;99.90;;;;;;7255356;32;20183;-81
2021/12/19 03:08:15;;;;;;;35.30;19.98;;;6.40;99.90;;;;;;7255815;32;20134;-81
2021/12/19 03:20:49;;;;;;;37.28;20.88;;;6.60;99.90;;;;;;7263511;32;20112;-81
2021/12/19 03:24:51;;;;;;;37.33;22.52;;;6.60;99.90;;;;;;7254840;32;20109;-82
2021/12/19 03:28:53;;;;;;;37.97;21.35;;;6.60;99.90;;;;;;7264586;32;20451;-81
2021/12/19 03:32:55;;;;;;;33.75;19.02;;;6.70;99.90;;;;;;7256149;32;20195;-82
2021/12/19 03:36:59;;;;;;;33.80;19.33;;;6.60;99.90;;;;;;7261810;32;20286;-82
2021/12/19 03:41:15;;;;;;;34.80;19.37;;;6.60;99.90;;;;;;7273060;32;20105;-81
2021/12/19 03:45:21;;;;;;;34.08;19.33;;;6.60;99.90;;;;;;7243830;32;20195;-81
2021/12/19 03:49:24;;;;;;;39.55;22.10;;;6.60;99.90;;;;;;7255282;32;20151;-81
2021/12/19 03:53:26;;;;;;;37.25;20.95;;;6.60;99.90;;;;;;7255984;32;20121;-80
2021/12/19 03:57:28;;;;;;;34.75;20.00;;;6.60;99.90;;;;;;7255084;32;20112;-81
2021/12/19 04:01:30;;;;;;;39.47;22.30;;;6.60;99.90;;;;;;7259725;32;20513;-81
2021/12/19 04:05:33;;;;;;;37.60;21.60;;;6.70;99.90;;;;;;7253193;32;20513;-81
2021/12/19 04:09:35;;;;;;;33.95;18.80;;;6.60;99.90;;;;;;7242832;32;20117;-80
2021/12/19 04:13:37;;;;;;;35.97;19.12;;;6.60;99.90;;;;;;7269246;32;20684;-80
2021/12/19 04:17:40;;;;;;;36.38;19.67;;;6.60;99.90;;;;;;7256787;32;20131;-81
2021/12/19 04:21:42;;;;;;;34.90;19.90;;;6.60;99.90;;;;;;7240078;32;20166;-81
2021/12/19 04:25:45;;;;;;;30.80;17.87;;;6.60;99.90;;;;;;7258603;32;20164;-81
2021/12/19 04:29:49;;;;;;;33.47;19.67;;;6.60;99.90;;;;;;7252953;32;20216;-81
2021/12/19 04:33:51;;;;;;;34.50;19.25;;;6.60;99.90;;;;;;7267926;32;20559;-81
2021/12/19 04:38:33;;;;;;;32.50;18.87;;;6.60;99.90;;;;;;7268343;32;20117;-82
2021/12/19 04:51:24;;;;;;;33.17;16.83;;;6.60;99.90;;;;;;7252925;32;20146;-80
2021/12/19 05:00:02;;;;;;;33.92;17.08;;;6.60;99.90;;;;;;7255962;32;20210;-80
2021/12/19 05:05:07;;;;;;;24.67;15.15;;;6.40;99.90;;;;;;7249728;32;20105;-81
2021/12/19 05:17:19;;;;;;;26.10;14.90;;;6.60;99.90;;;;;;7264917;32;20109;-80
2021/12/19 05:21:26;;;;;;;31.65;16.75;;;6.60;99.90;;;;;;7252176;32;20174;-80
2021/12/19 05:25:28;;;;;;;31.50;18.80;;;6.60;99.90;;;;;;7239498;32;20121;-80
2021/12/19 05:29:35;;;;;;;35.45;18.15;;;6.60;99.90;;;;;;7240917;32;20237;-81
2021/12/19 05:33:37;;;;;;;28.10;15.93;;;6.60;99.90;;;;;;7234465;32;20148;-80
2021/12/19 05:46:21;;;;;;;26.85;12.48;;;6.30;99.90;;;;;;7241556;32;20141;-80
2021/12/19 05:50:23;;;;;;;27.37;12.90;;;6.30;99.90;;;;;;7231325;32;20140;-80
2021/12/19 05:54:26;;;;;;;25.48;12.32;;;6.30;99.90;;;;;;7263135;32;20415;-80
2021/12/19 05:58:28;;;;;;;23.58;10.95;;;6.30;99.90;;;;;;7265611;32;20222;-81
2021/12/19 06:02:30;;;;;;;23.50;11.27;;;6.20;99.90;;;;;;7265982;32;20105;-81
2021/12/19 06:06:33;;;;;;;25.42;11.48;;;6.30;99.90;;;;;;7237518;32;20140;-80
2021/12/19 06:10:35;;;;;;;20.52;10.60;;;6.30;99.90;;;;;;7263055;32;20170;-80
2021/12/19 06:14:37;;;;;;;24.65;11.15;;;6.20;99.90;;;;;;7249226;32;20530;-80
2021/12/19 06:18:39;;;;;;;24.95;10.98;;;6.30;99.90;;;;;;7249755;32;20609;-81
2021/12/19 06:22:41;;;;;;;24.77;11.85;;;6.30;99.90;;;;;;7243849;32;20786;-80
2021/12/19 06:26:43;;;;;;;27.62;12.70;;;6.30;99.90;;;;;;7262837;32;20131;-79
2021/12/19 06:30:46;;;;;;;26.42;13.57;;;6.20;99.90;;;;;;7241697;32;20112;-79
2021/12/19 06:34:48;;;;;;;25.77;12.60;;;6.20;99.90;;;;;;7257500;32;20203;-80
2021/12/19 06:38:52;;;;;;;32.63;13.82;;;6.10;99.90;;;;;;7241576;32;20160;-80
2021/12/19 06:42:55;;;;;;;33.25;14.02;;;6.10;99.90;;;;;;7250916;32;20123;-80
2021/12/19 06:46:57;;;;;;;26.92;12.43;;;6.10;99.90;;;;;;7248457;32;20130;-79
2021/12/19 06:51:00;;;;;;;25.23;11.20;;;6.10;99.90;;;;;;7247277;32;20140;-80
2021/12/19 06:55:02;;;;;;;27.60;12.18;;;6.20;99.90;;;;;;7236636;32;20215;-80
2021/12/19 06:59:04;;;;;;;25.85;12.27;;;6.10;99.90;;;;;;7243840;32;20182;-80
2021/12/19 07:03:06;;;;;;;29.90;13.05;;;6.20;99.90;;;;;;7258715;32;20132;-80
2021/12/19 07:07:09;;;;;;;26.75;12.95;;;6.30;99.90;;;;;;7240571;32;20108;-80
2021/12/19 07:11:11;;;;;;;26.80;12.77;;;6.30;99.90;;;;;;7263632;32;20254;-81
2021/12/19 07:15:17;;;;;;;25.62;11.38;;;6.30;99.90;;;;;;7236665;32;20129;-81
2021/12/19 07:19:20;;;;;;;19.55;9.73;;;6.20;99.90;;;;;;7248902;32;20174;-81
2021/12/19 07:23:23;;;;;;;19.23;9.38;;;6.20;99.90;;;;;;7256864;32;20174;-80
2021/12/19 07:27:25;;;;;;;16.50;8.40;;;6.10;99.90;;;;;;7245235;32;20101;-80
2021/12/19 07:31:30;;;;;;;20.75;8.60;;;6.00;99.90;;;;;;7268989;32;20540;-81
2021/12/19 07:35:35;;;;;;;18.65;8.57;;;6.00;99.90;;;;;;7253596;32;20525;-79
2021/12/19 07:39:45;;;;;;;18.60;8.55;;;6.00;99.90;;;;;;7245094;32;21015;-79
2021/12/19 07:43:47;;;;;;;17.17;8.30;;;5.90;99.90;;;;;;7243611;32;20313;-79
2021/12/19 07:47:50;;;;;;;18.35;7.60;;;6.00;99.90;;;;;;7259347;32;20116;-79
2021/12/19 07:51:52;;;;;;;13.88;7.68;;;6.00;99.90;;;;;;7254256;32;20117;-80
2021/12/19 07:55:55;;;;;;;19.65;8.43;;;6.10;99.90;;;;;;7267964;32;20135;-79
2021/12/19 07:59:57;;;;;;;18.35;8.25;;;6.10;99.90;;;;;;7252983;32;20115;-79
2021/12/19 08:03:59;;;;;;;15.63;8.20;;;6.10;99.90;;;;;;7266623;32;20162;-79
2021/12/19 08:08:04;;;;;;;14.50;8.38;;;6.00;99.90;;;;;;7279148;32;20108;-79
2021/12/19 08:12:07;;;;;;;15.93;8.80;;;6.00;99.90;;;;;;7256377;32;20121;-80
2021/12/19 08:16:10;;;;;;;15.70;9.52;;;6.00;99.90;;;;;;7254041;32;20132;-80
2021/12/19 08:20:14;;;;;;;17.98;8.98;;;6.00;99.90;;;;;;7262212;32;20204;-79
2021/12/19 08:24:16;;;;;;;17.37;8.93;;;6.00;99.90;;;;;;7248005;32;20418;-79
2021/12/19 08:28:18;;;;;;;16.92;9.07;;;6.00;99.90;;;;;;7271972;32;20249;-79
2021/12/19 08:32:22;;;;;;;15.75;8.75;;;6.10;99.90;;;;;;7252473;32;20108;-82
2021/12/19 08:36:25;;;;;;;18.70;9.73;;;6.10;99.90;;;;;;7268882;32;20180;-78
2021/12/19 08:40:28;;;;;;;16.10;9.27;;;6.10;99.90;;;;;;7254196;32;20207;-76
2021/12/19 08:44:30;;;;;;;19.90;9.77;;;6.10;99.90;;;;;;7262028;32;20140;-79
2021/12/19 08:48:33;;;;;;;18.15;9.68;;;6.10;99.90;;;;;;7238832;32;20120;-80
2021/12/19 08:52:44;;;;;;;18.30;10.02;;;6.10;99.90;;;;;;7262545;32;20519;-80
2021/12/19 08:56:46;;;;;;;16.73;9.65;;;6.20;99.90;;;;;;7244567;32;20175;-79
2021/12/19 09:00:49;;;;;;;15.90;9.85;;;6.30;99.90;;;;;;7263369;32;20277;-79
2021/12/19 09:04:52;;;;;;;15.30;9.32;;;6.30;99.90;;;;;;7262520;32;20822;-79
2021/12/19 09:08:54;;;;;;;14.02;8.57;;;6.20;99.90;;;;;;7261628;32;20184;-78
2021/12/19 09:12:56;;;;;;;14.52;8.13;;;6.30;99.90;;;;;;7260904;32;20093;-79
2021/12/19 09:17:01;;;;;;;15.65;8.48;;;6.40;99.90;;;;;;7246740;32;20685;-79
2021/12/19 09:21:03;;;;;;;15.70;8.35;;;6.30;99.90;;;;;;7263430;32;20112;-79
2021/12/19 09:25:07;;;;;;;16.92;8.77;;;6.30;99.90;;;;;;7260665;32;20101;-79
2021/12/19 09:29:09;;;;;;;15.80;8.30;;;6.30;99.90;;;;;;7260444;32;20217;-79
2021/12/19 09:33:11;;;;;;;14.63;7.82;;;6.30;99.90;;;;;;7249818;32;20108;-79
2021/12/19 09:37:15;;;;;;;17.33;9.35;;;6.30;99.90;;;;;;7262147;32;20189;-79
2021/12/19 09:41:28;;;;;;;15.73;7.80;;;6.30;99.90;;;;;;7262175;32;20594;-78
2021/12/19 09:45:32;;;;;;;15.25;8.02;;;6.40;99.90;;;;;;7261544;32;20642;-80
2021/12/19 09:49:35;;;;;;;14.77;8.20;;;6.40;99.90;;;;;;7240413;32;20164;-81
2021/12/19 09:53:39;;;;;;;13.85;7.85;;;6.50;99.90;;;;;;7251533;32;20120;-81
2021/12/19 09:57:41;;;;;;;13.60;8.00;;;6.50;99.90;;;;;;7253059;32;20128;-81
2021/12/19 10:01:45;;;;;;;15.38;8.27;;;6.60;99.90;;;;;;7259026;32;20145;-81
2021/12/19 10:05:47;;;;;;;14.55;8.50;;;6.50;99.90;;;;;;7275677;32;20572;-84
2021/12/19 10:10:01;;;;;;;13.73;8.52;;;6.50;99.90;;;;;;7256219;32;20139;-81
2021/12/19 10:14:28;;;;;;;17.45;8.57;;;6.50;99.90;;;;;;7260200;32;20096;-80
2021/12/19 10:18:30;;;;;;;14.47;8.90;;;6.50;99.90;;;;;;7257176;32;20105;-80
2021/12/19 10:22:33;;;;;;;13.62;8.30;;;6.60;99.90;;;;;;7281095;32;20105;-81
2021/12/19 10:26:41;;;;;;;17.37;9.73;;;6.50;99.90;;;;;;7283147;32;20100;-81
2021/12/19 10:30:46;;;;;;;16.80;9.80;;;6.50;99.90;;;;;;7287256;32;20139;-83
2021/12/19 10:34:51;;;;;;;13.02;9.13;;;6.60;99.90;;;;;;7271313;32;20077;-84
2021/12/19 10:38:56;;;;;;;13.65;9.98;;;6.60;99.90;;;;;;7274485;32;20106;-79
2021/12/19 10:43:04;;;;;;;14.60;10.10;;;6.60;99.90;;;;;;7267008;32;20254;-82
2021/12/19 10:47:21;;;;;;;15.27;9.82;;;6.60;99.90;;;;;;7263440;32;20525;-80
2021/12/19 10:51:25;;;;;;;14.57;10.30;;;6.60;99.90;;;;;;7245661;32;20147;-80
2021/12/19 10:55:28;;;;;;;15.45;10.00;;;6.60;99.90;;;;;;7258328;32;20170;-80
2021/12/19 10:59:31;;;;;;;15.00;9.75;;;6.60;99.90;;;;;;7251726;32;20100;-82
2021/12/19 11:03:43;;;;;;;13.05;8.57;;;6.60;99.90;;;;;;7241260;32;20116;-80
2021/12/19 11:08:06;;;;;;;11.60;6.97;;;6.60;99.90;;;;;;7248039;32;20144;-80
2021/12/19 11:12:11;;;;;;;9.65;5.65;;;6.60;99.90;;;;;;7269733;32;20225;-80
2021/12/19 11:16:13;;;;;;;6.72;4.60;;;6.70;99.90;;;;;;7243659;32;20147;-82
2021/12/19 11:20:16;;;;;;;4.25;3.10;;;6.70;99.90;;;;;;7241685;32;20505;-81
2021/12/19 11:24:20;;;;;;;9.38;4.10;;;6.80;99.90;;;;;;7266271;32;20120;-80
2021/12/19 11:28:23;;;;;;;5.60;3.15;;;6.80;99.90;;;;;;7250934;32;20116;-80
2021/12/19 11:32:48;;;;;;;5.93;2.65;;;6.70;99.90;;;;;;7245921;32;20592;-80
2021/12/19 11:37:00;;;;;;;4.30;2.20;;;6.60;99.90;;;;;;7237444;32;20139;-80
2021/12/19 11:41:10;;;;;;;5.28;2.62;;;6.60;99.90;;;;;;7242591;32;20206;-79
2021/12/19 11:45:27;;;;;;;3.67;2.25;;;6.40;99.90;;;;;;7258142;32;20193;-76
2021/12/19 11:49:30;;;;;;;3.40;2.05;;;6.50;99.90;;;;;;7260384;32;20109;-80
2021/12/19 11:53:41;;;;;;;3.05;1.77;;;6.60;99.90;;;;;;7256640;32;20593;-77
2021/12/19 11:58:07;;;;;;;3.78;1.95;;;6.60;99.90;;;;;;7257836;32;20105;-79
2021/12/19 12:02:26;;;;;;;2.90;1.62;;;6.60;99.90;;;;;;7260845;32;20266;-79
2021/12/19 12:06:34;;;;;;;1.98;1.30;;;6.70;99.90;;;;;;7254319;32;20105;-77
2021/12/19 12:10:51;;;;;;;2.42;1.50;;;6.80;99.90;;;;;;7262464;32;20135;-77
2021/12/19 12:15:03;;;;;;;2.70;1.27;;;6.70;99.90;;;;;;7256027;32;20125;-76
2021/12/19 12:19:07;;;;;;;1.42;0.95;;;6.70;99.90;;;;;;7264523;32;20151;-77
2021/12/19 12:23:11;;;;;;;3.95;1.52;;;6.70;99.90;;;;;;7264780;32;20275;-78
2021/12/19 12:27:13;;;;;;;1.98;1.25;;;6.70;99.90;;;;;;7251062;32;20116;-79
2021/12/19 12:31:15;;;;;;;2.28;1.27;;;6.70;99.90;;;;;;7240038;32;20143;-78
2021/12/19 12:35:19;;;;;;;4.03;1.90;;;6.60;99.90;;;;;;7263141;32;20138;-78
2021/12/19 12:39:27;;;;;;;2.85;1.70;;;6.60;99.90;;;;;;7266268;32;20142;-79
2021/12/19 12:43:30;;;;;;;;;;;6.70;99.90;;;;;;7238994;32;20211;-78
2021/12/19 12:47:33;;;;;;;2.58;0.80;;;6.70;99.90;;;;;;7262545;32;20085;-79
2021/12/19 12:51:48;;;;;;;1.95;1.20;;;6.60;99.90;;;;;;7256637;32;20608;-78
2021/12/19 12:56:09;;;;;;;1.17;0.80;;;6.70;99.90;;;;;;7245311;32;20215;-79
2021/12/19 13:00:22;;;;;;;1.08;0.68;;;6.70;99.90;;;;;;7247866;32;20105;-79
2021/12/19 13:04:28;;;;;;;1.20;0.62;;;6.60;99.90;;;;;;7247521;32;20187;-79
2021/12/19 13:08:30;;;;;;;2.10;0.68;;;6.60;99.90;;;;;;7261381;32;20112;-79
2021/12/19 13:12:41;;;;;;;1.23;0.77;;;6.60;99.90;;;;;;7248543;32;20123;-77
2021/12/19 13:16:46;;;;;;;2.15;0.95;;;6.60;99.90;;;;;;7261237;32;20206;-79
2021/12/19 13:20:48;;;;;;;4.70;1.08;;;6.60;99.90;;;;;;7254365;32;20249;-77
2021/12/19 13:24:52;;;;;;;2.50;1.10;;;6.60;99.90;;;;;;7258249;32;20258;-76
2021/12/19 13:28:54;;;;;;;1.98;1.10;;;6.60;99.90;;;;;;7261473;32;20162;-78
2021/12/19 13:33:16;;;;;;;3.67;1.58;;;6.70;99.90;;;;;;7258928;32;20112;-78
2021/12/19 13:37:20;;;;;;;3.35;1.30;;;6.60;99.90;;;;;;7263188;32;20097;-78
2021/12/19 13:41:23;;;;;;;5.55;1.58;;;6.60;99.90;;;;;;7260100;32;20534;-79
2021/12/19 13:45:43;;;;;;;6.20;2.03;;;6.50;99.90;;;;;;7246937;32;20112;-77
2021/12/19 13:49:45;;;;;;;7.65;3.92;;;6.50;99.90;;;;;;7245797;32;20180;-78
2021/12/19 13:58:42;;;;;;;4.18;2.20;;;6.40;99.90;;;;;;7241650;32;20101;-78
2021/12/19 14:02:45;;;;;;;4.80;2.35;;;6.40;99.90;;;;;;7259793;32;20100;-79
2021/12/19 14:06:50;;;;;;;8.45;2.47;;;6.50;99.90;;;;;;7260794;32;20109;-79
2021/12/19 14:11:04;;;;;;;3.25;1.80;;;6.50;99.90;;;;;;7250850;32;20152;-78
2021/12/19 14:15:10;;;;;;;4.15;1.95;;;6.40;99.90;;;;;;7263814;32;20100;-79
2021/12/19 14:19:18;;;;;;;4.18;2.62;;;6.50;99.90;;;;;;7258891;32;20130;-79
2021/12/19 14:23:21;;;;;;;4.20;2.25;;;6.60;99.90;;;;;;7256844;32;20169;-80
2021/12/19 14:27:28;;;;;;;4.22;2.15;;;6.60;99.90;;;;;;7261035;32;20191;-78
2021/12/19 14:32:18;;;;;;;3.85;2.33;;;6.60;99.90;;;;;;7246003;32;20108;-79
2021/12/19 14:36:28;;;;;;;4.93;2.22;;;6.60;99.90;;;;;;7251625;32;20140;-81
2021/12/19 14:45:55;;;;;;;4.32;1.92;;;6.40;99.90;;;;;;7256940;32;20127;-81
2021/12/19 14:50:09;;;;;;;4.07;1.90;;;6.40;99.90;;;;;;7259202;32;20136;-81
2021/12/19 14:54:12;;;;;;;3.28;1.37;;;6.40;99.90;;;;;;7270449;32;20128;-80
2021/12/19 14:58:16;;;;;;;5.45;1.60;;;6.40;99.90;;;;;;7275434;32;20108;-80
2021/12/19 15:02:18;;;;;;;6.22;2.28;;;6.40;99.90;;;;;;7249032;32;20598;-80
2021/12/19 15:06:23;;;;;;;5.75;1.90;;;6.50;99.90;;;;;;7257957;32;20121;-80
2021/12/19 15:10:30;;;;;;;5.32;1.85;;;6.60;99.90;;;;;;7251409;32;20128;-81
2021/12/19 15:14:32;;;;;;;4.90;1.80;;;6.50;99.90;;;;;;7251709;32;20203;-80
2021/12/19 15:18:35;;;;;;;4.68;1.92;;;6.50;99.90;;;;;;7250327;32;20178;-80
2021/12/19 15:22:41;;;;;;;5.05;1.75;;;6.50;99.90;;;;;;7260917;32;20101;-81
2021/12/19 15:26:43;;;;;;;6.10;2.00;;;6.50;99.90;;;;;;7257663;32;20174;-81
2021/12/19 15:30:48;;;;;;;4.15;1.70;;;6.40;99.90;;;;;;7258382;32;20112;-81
2021/12/19 15:34:50;;;;;;;6.78;2.70;;;6.30;99.90;;;;;;7263095;32;20548;-81
2021/12/19 15:38:53;;;;;;;6.22;2.40;;;6.30;99.90;;;;;;7266436;32;20120;-81
2021/12/19 15:42:55;;;;;;;4.25;2.20;;;6.40;99.90;;;;;;7256465;32;20439;-81
2021/12/19 15:46:58;;;;;;;8.57;4.70;;;6.30;99.90;;;;;;7226256;32;20151;-82
2021/12/19 15:51:00;;;;;;;7.68;5.10;;;6.30;99.90;;;;;;7255150;32;20779;-82
2021/12/19 15:55:06;;;;;;;4.47;2.00;;;6.20;99.90;;;;;;7265738;32;20720;-80
2021/12/19 15:59:09;;;;;;;5.65;2.35;;;6.40;99.90;;;;;;7264193;32;20105;-80
2021/12/19 16:03:13;;;;;;;5.80;2.60;;;6.40;99.90;;;;;;7251765;32;20166;-81
2021/12/19 16:07:16;;;;;;;10.00;4.80;;;6.30;99.90;;;;;;7264479;32;20128;-82
2021/12/19 16:11:18;;;;;;;6.05;2.58;;;6.20;99.90;;;;;;7261643;32;20198;-82
2021/12/19 16:25:31;;;;;;;3.72;2.28;;;6.30;99.90;;;;;;7253043;32;20195;-81
2021/12/19 16:29:35;;;;;;;6.03;2.80;;;6.20;99.90;;;;;;7241938;32;20498;-81
2021/12/19 16:33:39;;;;;;;11.80;5.20;;;6.20;99.90;;;;;;7260944;32;20139;-81
2021/12/19 16:37:42;;;;;;;10.70;5.30;;;6.30;99.90;;;;;;7252757;32;20178;-81
2021/12/19 16:42:01;;;;;;;12.48;5.55;;;6.30;99.90;;;;;;7271599;32;20104;-81
2021/12/19 16:51:12;;;;;;;15.32;7.18;;;6.20;99.90;;;;;;7207730;32;20278;-82
2021/12/19 16:55:14;;;;;;;15.75;7.12;;;6.30;99.90;;;;;;7243994;32;20595;-82
2021/12/19 16:59:17;;;;;;;12.15;7.78;;;6.30;99.90;;;;;;7247524;32;20116;-82
2021/12/19 17:03:23;;;;;;;12.23;6.80;;;6.30;99.90;;;;;;7266278;32;20237;-82
2021/12/19 17:07:25;;;;;;;12.45;6.15;;;6.40;99.90;;;;;;7249901;32;20116;-82
2021/12/19 17:11:33;;;;;;;9.77;5.90;;;6.40;99.90;;;;;;7258892;32;20513;-82
2021/12/19 17:15:35;;;;;;;11.50;6.57;;;6.30;99.90;;;;;;7254014;32;20226;-83
2021/12/19 17:19:42;;;;;;;16.12;7.18;;;6.30;99.90;;;;;;7256592;32;20105;-82
2021/12/19 17:23:44;;;;;;;13.40;6.78;;;6.30;99.90;;;;;;7255456;32;20188;-85
2021/12/19 17:27:47;;;;;;;13.32;7.60;;;6.30;99.90;;;;;;7267570;32;20463;-81
2021/12/19 17:31:50;;;;;;;12.00;7.43;;;6.20;99.90;;;;;;7262817;32;20592;-82
2021/12/19 17:35:53;;;;;;;17.80;9.65;;;6.10;99.90;;;;;;7274120;32;20130;-82
2021/12/19 17:40:14;;;;;;;13.43;8.82;;;6.10;99.90;;;;;;7273202;32;20244;-82
2021/12/19 17:44:16;;;;;;;14.95;9.43;;;6.20;99.90;;;;;;7238658;32;20134;-82
2021/12/19 17:48:18;;;;;;;16.55;9.90;;;6.20;99.90;;;;;;7262364;32;20638;-82
2021/12/19 17:52:23;;;;;;;17.50;8.63;;;6.30;99.90;;;;;;7251899;32;20136;-83
2021/12/19 17:56:24;;;;;;;13.23;8.40;;;6.30;99.90;;;;;;7252450;32;20581;-82
2021/12/19 18:00:26;;;;;;;22.23;13.10;;;6.20;99.90;;;;;;7265236;32;20135;-81
2021/12/19 18:04:30;;;;;;;16.12;8.23;;;6.20;99.90;;;;;;7235873;32;20462;-81
2021/12/19 18:08:33;;;;;;;12.70;8.05;;;6.30;99.90;;;;;;7252262;32;20150;-81
2021/12/19 18:12:35;;;;;;;13.90;8.38;;;6.30;99.90;;;;;;7260339;32;20109;-81
2021/12/19 18:16:37;;;;;;;14.90;8.35;;;6.30;99.90;;;;;;7267271;32;20789;-81
2021/12/19 18:20:38;;;;;;;14.80;9.93;;;6.30;99.90;;;;;;7268341;32;20195;-82
2021/12/19 18:24:40;;;;;;;15.38;9.02;;;6.40;99.90;;;;;;7250482;32;20142;-81
2021/12/19 18:28:43;;;;;;;18.75;9.43;;;6.30;99.90;;;;;;7256951;32;20134;-79
2021/12/19 18:32:47;;;;;;;18.08;9.90;;;6.30;99.90;;;;;;7258768;32;20383;-81
2021/12/19 18:36:54;;;;;;;14.82;9.73;;;6.30;99.90;;;;;;7268580;32;20294;-81
2021/12/19 18:40:56;;;;;;;19.48;10.32;;;6.30;99.90;;;;;;7254206;32;20183;-81
2021/12/19 18:45:07;;;;;;;15.57;10.40;;;6.40;99.90;;;;;;7251578;32;20165;-82
2021/12/19 18:49:25;;;;;;;19.08;10.98;;;6.30;99.90;;;;;;7243163;32;20211;-82
2021/12/19 18:53:38;;;;;;;19.50;10.27;;;6.40;99.90;;;;;;7263709;32;20605;-80
2021/12/19 18:57:44;;;;;;;19.27;9.38;;;6.40;99.90;;;;;;7240269;32;20207;-80
2021/12/19 19:01:57;;;;;;;17.92;10.48;;;6.40;99.90;;;;;;7264416;32;20127;-82
2021/12/19 19:06:07;;;;;;;14.52;9.15;;;6.50;99.90;;;;;;7248850;32;20399;-80
2021/12/19 19:10:09;;;;;;;15.30;8.50;;;6.50;99.90;;;;;;7262910;32;20096;-80
2021/12/19 19:14:12;;;;;;;17.45;8.98;;;6.40;99.90;;;;;;7257513;32;20435;-82
2021/12/19 19:18:14;;;;;;;15.73;8.82;;;6.50;99.90;;;;;;7257578;32;20112;-80
2021/12/19 19:22:17;;;;;;;16.95;8.25;;;6.50;99.90;;;;;;7249340;32;20100;-81
2021/12/19 19:26:19;;;;;;;13.65;7.95;;;6.50;99.90;;;;;;7239995;32;20229;-80
2021/12/19 19:30:22;;;;;;;17.37;8.90;;;6.50;99.90;;;;;;7263140;32;20211;-81
2021/12/19 19:34:24;;;;;;;13.95;8.80;;;6.50;99.90;;;;;;7256394;32;20117;-81
2021/12/19 19:39:07;;;;;;;13.77;7.57;;;6.50;99.90;;;;;;7262694;32;20112;-81
2021/12/19 19:51:38;;;;;;;20.27;13.65;;;6.40;99.90;;;;;;7263172;32;20170;-81
2021/12/19 19:55:40;;;;;;;16.92;9.50;;;6.30;99.90;;;;;;7251007;32;20221;-82
2021/12/19 19:59:42;;;;;;;11.15;7.53;;;6.30;99.90;;;;;;7254146;32;20109;-82
2021/12/19 20:03:44;;;;;;;14.38;7.60;;;6.30;99.90;;;;;;7267194;32;20105;-81
2021/12/19 20:07:46;;;;;;;14.30;7.03;;;6.40;99.90;;;;;;7258857;32;20127;-81
2021/12/19 20:11:49;;;;;;;12.55;7.47;;;6.40;99.90;;;;;;7266402;32;20104;-81
2021/12/19 20:15:51;;;;;;;14.57;8.98;;;6.30;99.90;;;;;;7251732;32;20186;-81
2021/12/19 20:19:53;;;;;;;12.82;8.02;;;6.40;99.90;;;;;;7270404;32;20113;-82
2021/12/19 20:23:57;;;;;;;14.20;8.57;;;6.40;99.90;;;;;;7251912;32;20132;-81
2021/12/19 20:28:00;;;;;;;13.32;8.88;;;6.40;99.90;;;;;;7253052;32;20187;-82
2021/12/19 20:32:04;;;;;;;14.00;8.30;;;6.30;99.90;;;;;;7254202;32;20496;-82
2021/12/19 20:36:06;;;;;;;14.18;9.00;;;6.40;99.90;;;;;;7259176;32;20126;-81
2021/12/19 20:40:08;;;;;;;14.60;9.38;;;6.40;99.90;;;;;;7277477;32;20109;-82
2021/12/19 20:44:10;;;;;;;20.17;10.13;;;6.40;99.90;;;;;;7244371;32;20109;-82
2021/12/19 20:48:13;;;;;;;16.80;10.15;;;6.40;99.90;;;;;;7252177;32;20113;-81
2021/12/19 20:52:17;;;;;;;19.52;9.82;;;6.30;99.90;;;;;;7275241;32;20112;-81
2021/12/19 20:56:19;;;;;;;12.90;9.52;;;6.30;99.90;;;;;;7239139;32;20097;-81
2021/12/19 21:00:21;;;;;;;18.92;10.95;;;6.30;99.90;;;;;;7253260;32;20131;-82
2021/12/19 21:04:23;;;;;;;15.32;10.43;;;6.30;99.90;;;;;;7257133;32;20569;-82
2021/12/19 21:08:25;;;;;;;16.87;9.90;;;6.30;99.90;;;;;;7275381;32;20188;-83
2021/12/19 21:12:38;;;;;;;17.17;10.27;;;6.40;99.90;;;;;;7264844;32;20108;-82
2021/12/19 21:21:07;;;;;;;19.92;11.63;;;6.30;99.90;;;;;;7253734;32;20127;-82
2021/12/19 21:25:09;;;;;;;18.10;12.50;;;6.40;99.90;;;;;;7268224;32;20455;-81
2021/12/19 21:29:11;;;;;;;19.73;12.77;;;6.40;99.90;;;;;;7242468;32;20679;-82
2021/12/19 21:33:13;;;;;;;24.27;11.98;;;6.30;99.90;;;;;;7266475;32;20108;-81
2021/12/19 21:41:39;;;;;;;17.23;11.65;;;6.40;99.90;;;;;;7259298;32;20544;-80
2021/12/19 21:45:41;;;;;;;18.23;10.43;;;6.30;99.90;;;;;;7264321;32;20125;-83
2021/12/19 21:49:43;;;;;;;17.70;10.38;;;6.30;99.90;;;;;;7250950;32;20582;-82
2021/12/19 21:53:46;;;;;;;19.08;11.05;;;6.30;99.90;;;;;;7266727;32;20143;-82
2021/12/19 21:57:50;;;;;;;15.88;9.40;;;6.20;99.90;;;;;;7234547;32;20905;-81
2021/12/19 22:01:51;;;;;;;23.60;10.57;;;6.30;99.90;;;;;;7235012;32;20108;-81
2021/12/19 22:05:54;;;;;;;21.70;11.00;;;6.30;99.90;;;;;;7244712;32;20540;-81
2021/12/19 22:09:57;;;;;;;23.08;11.00;;;6.30;99.90;;;;;;7244828;32;20156;-82
2021/12/19 22:18:09;;;;;;;17.45;10.02;;;6.30;99.90;;;;;;7260844;32;20183;-79
2021/12/19 22:22:11;;;;;;;17.15;9.82;;;6.30;99.90;;;;;;7248879;32;20771;-79
2021/12/19 22:26:14;;;;;;;19.27;10.77;;;6.30;99.90;;;;;;7250715;32;20128;-80
2021/12/19 22:30:16;;;;;;;17.40;10.38;;;6.30;99.90;;;;;;7265304;32;20689;-79
2021/12/19 22:34:18;;;;;;;25.17;12.32;;;6.30;99.90;;;;;;7274925;32;20171;-80
2021/12/19 22:38:20;;;;;;;20.70;11.68;;;6.20;99.90;;;;;;7289564;32;20635;-80
2021/12/19 22:42:22;;;;;;;22.90;11.55;;;6.20;99.90;;;;;;7275565;32;20490;-80
2021/12/19 22:46:24;;;;;;;21.52;11.00;;;6.20;99.90;;;;;;7236621;32;20108;-80
2021/12/19 22:50:26;;;;;;;15.95;10.48;;;6.20;99.90;;;;;;7229899;32;20150;-80
2021/12/19 22:54:28;;;;;;;20.88;11.40;;;6.30;99.90;;;;;;7265944;32;20526;-80